Portada
METAR-TAF:

METAR-TAF

Aeroports :

Al Wajh, Aràbia Saudita

latitud: 26-12N, longitud: 036-28E, altitud: 20 m

Observació

L'informe es va fer fa 33 minuts, a les 04:00 UTC
Vent 4 kt del Nord-Est
Temperatura 28°C
Humitat 84%
Pressió 1007 hPa
Visibilitat 10 km o més
sense núvols per sota de 1500 mi sense presència de cumulonimbus.

METAR: OEWJ 050400Z 05004KT CAVOK 28/25 Q1007 NOSIG

Hora: 07:33 (04:33 UTC)

Pronòstic

L'informe es va fer fa 5 hores i 33 minuts, a les 23:00 UTC
Pronòstic vàlid del 05 a les 00 UTC al 06 a les 06 UTC
Vent 3 kt amb direcció variable
Visibilitat 10 km o més
Escasses núvols a una alçada de 4000 ft
Evolucionant progressivament
l' 05 a les 04 UTC al 05 a les 06 UTC
Vent 10 kt del Nord-Oest
Visibilitat 10 km o més
sense núvols per sota de 1500 mi sense presència de cumulonimbus.

TAF: OEWJ 042300Z 0500/0606 VRB03KT 9999 FEW040 BECMG 0504/0506 32010KT CAVOK

Observacions i pronòstics meteorològics de més de 4000 aeroports (METAR i TAF).

Les estacions disponibles són els punts grocs i vermells al mapa.

Posi el ratolí al punt desitjat per veure el nom de l'estació.

Feu clic per veure les observacions i els pronòstics meteorològics.

Per canviar el mapa: feu clic els botons verds amb una creu de color negre per apropar; al botó verd amb un guió per allunyar la imatge; o en les fletxes verdes per a mapes adjacents.


METAR-TAF: